Dade City, FL (33523)

3:27 AM EDT on March 27, 2015 (GMT -0400)
Dade City at Blanton | | Change Station
CLOSE
Current Station
Personal Weather Station
Location: Dade City, FL
Elevation: 170 ft
Nearby Weather Stations

Elev 170 ft 28.40 °N, 82.25 °W | Updated 2 minutes ago

Rain
Rain
65.1 °F
Feels Like 65.1 °F
N
0.0
Wind Variable Wind from NW
Gusts 3.0 mph

Today
High -- | Low -- °F
--% Chance of Precip.
Yesterday
High -- | Low -- °F
Precip. -- in
7:24 AM 7:44 PM
Waxing Crescent, 50% visible
Pressure 29.94 in
Visibility 5.0 miles
Clouds Scattered Clouds 2900 ft
Mostly Cloudy 3700 ft
Overcast 6500 ft
Dew Point 30 °F
Humidity 27%
Rainfall 0.07 in
Snow Depth Not available.
UV 0 out of 12
Pollen 9.10 out of 12
Air Quality Not available.
Flu Activity Not available.
METAR KZPH 270715Z AUTO 28007KT 5SM RA SCT029 BKN037 OVC065 18/18 A2994 RMK AO2 P0008

More Conditions Fewer Conditions

Pressure 29.94 in
Visibility 5.0 miles
Clouds Scattered Clouds 2900 ft
Mostly Cloudy 3700 ft
Overcast 6500 ft
Dew Point 30 °F
Humidity 27%
Rainfall 0.07 in
Snow Depth Not available.
UV 0 out of 12
Pollen 9.10 out of 12
Air Quality Not available.
Flu Activity Not available.
METAR KZPH 270715Z AUTO 28007KT 5SM RA SCT029 BKN037 OVC065 18/18 A2994 RMK AO2 P0008

More Conditions Fewer Conditions

10-Day Weather Forecast

Almanac

Astronomy

Mar. 27, 2015 Rise Set
Actual Time
Civil Twilight
Nautical Twilight
Astronomical Twilight
Moon
Length of Visible Light
Length of Day
Tomorrow will be .
, % of the Moon is Illuminated

Today's Extremes

State Highs State Lows

Community

WunderPhotos

Upload Photos

1,808,701 photos uploaded!

WunderBlogs® & News

Nearby

Air Quality

  Air Quality AQ Index Pollutant
Not available.

Snow Depth

Station Depth Elevation

Earthquake Activity

City Distance Mag. Time & Date
Minimum magnitude displayed is 2.5.

Coastal Water Temperatures

Place Temperature

Stations

Nearby Weather Stations

Station Location Temp. Windchill Dew Point Humidity Wind Precip. Elev Updated Type